Terminal Aerodrome Forecast
Issued by NWS

Current Version | Previous Version | Text Only | Print | Product List | Glossary Off
Versions: 1 2 3 4 5 6 7 8 9 10 11 12 13 14 15 16 17 18 19 20

000
FTUS41 KILN 030500
TAFLUK
TAF
KLUK 030533Z 0306/0406 04004KT P6SM OVC070
     FM030800 07007KT 2SM BR OVC015
     FM031400 06007KT 5SM BR VCSH BKN025 OVC040
     FM031800 04008KT P6SM VCSH BKN040
     FM040100 01003KT P6SM SCT040=

USA.gov is the U.S. government's official web portal to all federal, state and local government web resources and services.